メインページ
METAR-TAF:

METAR-TAF

空港 :

ムンバイ, インド

チャトラパティ・シヴァージー国際空港

緯度: 19-07N, 経度: 072-51E, 海抜: 8m

現時点の気象観測

当レポートは42分前の15:00(UTC)に作成
東/南東の風 6kt
気温 27°C
湿度 89%
気圧 1000 hPa
視程: 3000m
高度1800ftの雲は散在している
高度3000ftの雲はほとんどない, 塔状積雲.
高度10000ftの千切れ雲あり
煙霧

METAR: VABB 251500Z 12006KT 3000 HZ SCT018 FEW030TCU BKN100 27/25 Q1000 NOSIG

時間: 21:12 (15:42 UTC)


TAF: 見つかりません

4,000以上の空港の気象観測と天気予報(METAR報とTAF報)

利用可能な観測所は地図上に黄色い丸と赤い丸で示す。

丸の上にカーソルを重ねると観測所名を参照できる。

次にクリックすると気象観測と天気予報を参照できる。

マップの切り替え:黒色「×」印の緑ボタンをクリックして拡大、「-」印の緑ボタンをクリックして縮小、緑色の三角印をクリックして隣りの地図に切り替え


METAR-TAF: